sensor_id;sensor_type;location;lat;lon;timestamp;P1;durP1;ratioP1;P2;durP2;ratioP2
34242;SDS011;20504;43.214;27.920;2023-06-19T00:01:57;21.75;;;12.52;;
34242;SDS011;20504;43.214;27.920;2023-06-19T00:04:24;24.90;;;12.90;;
34242;SDS011;20504;43.214;27.920;2023-06-19T00:07:05;17.73;;;12.60;;
34242;SDS011;20504;43.214;27.920;2023-06-19T00:09:40;18.83;;;11.50;;
34242;SDS011;20504;43.214;27.920;2023-06-19T00:12:39;16.40;;;10.48;;
34242;SDS011;20504;43.214;27.920;2023-06-19T00:15:26;20.15;;;10.90;;
34242;SDS011;20504;43.214;27.920;2023-06-19T00:17:56;17.33;;;9.25;;
34242;SDS011;20504;43.214;27.920;2023-06-19T00:26:05;20.55;;;8.55;;
34242;SDS011;20504;43.214;27.920;2023-06-19T00:28:31;12.15;;;8.35;;
34242;SDS011;20504;43.214;27.920;2023-06-19T00:31:04;18.20;;;8.30;;
34242;SDS011;20504;43.214;27.920;2023-06-19T00:33:39;14.95;;;7.75;;
34242;SDS011;20504;43.214;27.920;2023-06-19T00:36:10;14.35;;;6.85;;
34242;SDS011;20504;43.214;27.920;2023-06-19T00:38:46;13.98;;;6.57;;
34242;SDS011;20504;43.214;27.920;2023-06-19T00:41:13;13.43;;;6.55;;
34242;SDS011;20504;43.214;27.920;2023-06-19T00:49:10;14.57;;;6.57;;
34242;SDS011;20504;43.214;27.920;2023-06-19T00:51:42;13.57;;;6.10;;
34242;SDS011;20504;43.214;27.920;2023-06-19T01:00:09;11.20;;;5.90;;
34242;SDS011;20504;43.214;27.920;2023-06-19T01:02:46;10.90;;;5.35;;
34242;SDS011;20504;43.214;27.920;2023-06-19T01:05:15;14.25;;;5.60;;
34242;SDS011;20504;43.214;27.920;2023-06-19T01:16:45;8.77;;;4.93;;
34242;SDS011;20504;43.214;27.920;2023-06-19T01:19:22;7.90;;;5.53;;
34242;SDS011;20504;43.214;27.920;2023-06-19T01:22:04;9.57;;;5.25;;
34242;SDS011;20504;43.214;27.920;2023-06-19T01:25:16;10.95;;;4.63;;
34242;SDS011;20504;43.214;27.920;2023-06-19T01:27:45;8.98;;;5.20;;
34242;SDS011;20504;43.214;27.920;2023-06-19T01:30:14;13.18;;;5.70;;
34242;SDS011;20504;43.214;27.920;2023-06-19T01:33:03;13.18;;;5.80;;
34242;SDS011;20504;43.214;27.920;2023-06-19T01:36:15;10.00;;;6.20;;
34242;SDS011;20504;43.214;27.920;2023-06-19T01:39:06;12.48;;;5.50;;
34242;SDS011;20504;43.214;27.920;2023-06-19T01:41:40;11.57;;;5.35;;
34242;SDS011;20504;43.214;27.920;2023-06-19T01:52:16;16.42;;;5.90;;
34242;SDS011;20504;43.214;27.920;2023-06-19T01:55:21;13.13;;;5.75;;
34242;SDS011;20504;43.214;27.920;2023-06-19T01:58:10;11.98;;;6.15;;
34242;SDS011;20504;43.214;27.920;2023-06-19T02:00:44;14.63;;;5.72;;
34242;SDS011;20504;43.214;27.920;2023-06-19T02:03:55;11.43;;;6.25;;
34242;SDS011;20504;43.214;27.920;2023-06-19T02:06:41;13.25;;;6.22;;
34242;SDS011;20504;43.214;27.920;2023-06-19T02:11:51;11.98;;;6.05;;
34242;SDS011;20504;43.214;27.920;2023-06-19T02:14:40;15.02;;;6.97;;
34242;SDS011;20504;43.214;27.920;2023-06-19T02:17:28;17.80;;;7.70;;
34242;SDS011;20504;43.214;27.920;2023-06-19T02:23:03;15.93;;;8.73;;
34242;SDS011;20504;43.214;27.920;2023-06-19T02:25:43;12.23;;;8.57;;
34242;SDS011;20504;43.214;27.920;2023-06-19T02:28:33;9.80;;;7.82;;
34242;SDS011;20504;43.214;27.920;2023-06-19T02:31:12;10.45;;;8.82;;
34242;SDS011;20504;43.214;27.920;2023-06-19T02:33:42;11.70;;;8.68;;
34242;SDS011;20504;43.214;27.920;2023-06-19T02:36:11;12.50;;;8.93;;
34242;SDS011;20504;43.214;27.920;2023-06-19T02:39:26;12.52;;;9.07;;
34242;SDS011;20504;43.214;27.920;2023-06-19T02:42:36;15.15;;;8.77;;
34242;SDS011;20504;43.214;27.920;2023-06-19T02:45:15;13.77;;;8.88;;
34242;SDS011;20504;43.214;27.920;2023-06-19T02:47:55;12.20;;;9.23;;
34242;SDS011;20504;43.214;27.920;2023-06-19T02:56:26;12.05;;;8.52;;
34242;SDS011;20504;43.214;27.920;2023-06-19T03:09:03;16.15;;;8.68;;
34242;SDS011;20504;43.214;27.920;2023-06-19T03:12:03;16.35;;;9.30;;
34242;SDS011;20504;43.214;27.920;2023-06-19T03:15:01;16.20;;;8.18;;
34242;SDS011;20504;43.214;27.920;2023-06-19T03:23:08;15.20;;;9.40;;
34242;SDS011;20504;43.214;27.920;2023-06-19T03:25:57;20.45;;;10.73;;
34242;SDS011;20504;43.214;27.920;2023-06-19T03:28:30;20.75;;;11.23;;
34242;SDS011;20504;43.214;27.920;2023-06-19T03:31:35;16.33;;;11.32;;
34242;SDS011;20504;43.214;27.920;2023-06-19T03:34:53;16.98;;;12.57;;
34242;SDS011;20504;43.214;27.920;2023-06-19T03:41:27;17.10;;;12.20;;
34242;SDS011;20504;43.214;27.920;2023-06-19T04:32:04;15.18;;;11.07;;
34242;SDS011;20504;43.214;27.920;2023-06-19T04:34:38;13.73;;;10.25;;
34242;SDS011;20504;43.214;27.920;2023-06-19T04:40:17;12.65;;;9.63;;
34242;SDS011;20504;43.214;27.920;2023-06-19T04:48:24;11.10;;;9.05;;
34242;SDS011;20504;43.214;27.920;2023-06-19T04:56:35;10.05;;;7.97;;
34242;SDS011;20504;43.214;27.920;2023-06-19T04:59:57;10.60;;;7.97;;
34242;SDS011;20504;43.214;27.920;2023-06-19T05:02:50;9.05;;;7.45;;
34242;SDS011;20504;43.214;27.920;2023-06-19T05:06:02;10.35;;;6.80;;
34242;SDS011;20504;43.214;27.920;2023-06-19T05:14:45;10.35;;;6.53;;
34242;SDS011;20504;43.214;27.920;2023-06-19T05:17:49;11.52;;;5.72;;
34242;SDS011;20504;43.214;27.920;2023-06-19T05:20:15;9.30;;;6.00;;
34242;SDS011;20504;43.214;27.920;2023-06-19T05:22:40;11.93;;;5.90;;
34242;SDS011;20504;43.214;27.920;2023-06-19T05:25:09;9.07;;;5.75;;
34242;SDS011;20504;43.214;27.920;2023-06-19T05:27:35;11.25;;;5.32;;
34242;SDS011;20504;43.214;27.920;2023-06-19T05:30:01;8.73;;;5.60;;
34242;SDS011;20504;43.214;27.920;2023-06-19T05:32:33;9.07;;;4.97;;
34242;SDS011;20504;43.214;27.920;2023-06-19T05:34:59;7.57;;;4.90;;
34242;SDS011;20504;43.214;27.920;2023-06-19T05:37:27;9.95;;;5.07;;
34242;SDS011;20504;43.214;27.920;2023-06-19T05:39:55;10.73;;;4.28;;
34242;SDS011;20504;43.214;27.920;2023-06-19T05:42:48;9.13;;;5.07;;
34242;SDS011;20504;43.214;27.920;2023-06-19T05:45:42;14.00;;;5.55;;
34242;SDS011;20504;43.214;27.920;2023-06-19T05:52:01;10.93;;;4.07;;
34242;SDS011;20504;43.214;27.920;2023-06-19T05:57:37;7.97;;;3.40;;
34242;SDS011;20504;43.214;27.920;2023-06-19T06:00:34;6.53;;;3.47;;
34242;SDS011;20504;43.214;27.920;2023-06-19T06:04:02;6.70;;;3.40;;
34242;SDS011;20504;43.214;27.920;2023-06-19T06:11:53;7.38;;;3.80;;
34242;SDS011;20504;43.214;27.920;2023-06-19T06:14:57;5.93;;;3.75;;
34242;SDS011;20504;43.214;27.920;2023-06-19T06:17:42;8.57;;;4.20;;
34242;SDS011;20504;43.214;27.920;2023-06-19T06:28:33;10.32;;;3.80;;
34242;SDS011;20504;43.214;27.920;2023-06-19T06:31:11;11.82;;;4.05;;
34242;SDS011;20504;43.214;27.920;2023-06-19T06:33:37;10.45;;;4.28;;
34242;SDS011;20504;43.214;27.920;2023-06-19T06:44:31;6.55;;;3.35;;
34242;SDS011;20504;43.214;27.920;2023-06-19T06:49:57;9.38;;;4.40;;
34242;SDS011;20504;43.214;27.920;2023-06-19T06:53:09;7.00;;;4.35;;
34242;SDS011;20504;43.214;27.920;2023-06-19T07:00:48;10.10;;;4.03;;
34242;SDS011;20504;43.214;27.920;2023-06-19T07:03:16;8.38;;;4.10;;
34242;SDS011;20504;43.214;27.920;2023-06-19T07:05:41;9.68;;;3.08;;
34242;SDS011;20504;43.214;27.920;2023-06-19T07:08:07;11.82;;;4.50;;
34242;SDS011;20504;43.214;27.920;2023-06-19T07:10:33;7.43;;;3.43;;
34242;SDS011;20504;43.214;27.920;2023-06-19T07:12:59;7.57;;;3.92;;
34242;SDS011;20504;43.214;27.920;2023-06-19T07:15:25;5.83;;;3.43;;
34242;SDS011;20504;43.214;27.920;2023-06-19T07:17:51;6.60;;;3.67;;
34242;SDS011;20504;43.214;27.920;2023-06-19T07:20:18;7.68;;;3.85;;
34242;SDS011;20504;43.214;27.920;2023-06-19T07:22:43;11.00;;;3.50;;
34242;SDS011;20504;43.214;27.920;2023-06-19T07:25:15;4.55;;;3.35;;
34242;SDS011;20504;43.214;27.920;2023-06-19T07:28:10;5.55;;;3.85;;
34242;SDS011;20504;43.214;27.920;2023-06-19T07:30:48;6.72;;;3.55;;
34242;SDS011;20504;43.214;27.920;2023-06-19T07:33:29;8.05;;;3.22;;
34242;SDS011;20504;43.214;27.920;2023-06-19T07:36:59;9.23;;;3.22;;
34242;SDS011;20504;43.214;27.920;2023-06-19T07:40:15;6.60;;;3.55;;
34242;SDS011;20504;43.214;27.920;2023-06-19T07:42:49;6.40;;;3.17;;
34242;SDS011;20504;43.214;27.920;2023-06-19T07:48:40;7.57;;;3.97;;
34242;SDS011;20504;43.214;27.920;2023-06-19T07:52:01;6.28;;;3.92;;
34242;SDS011;20504;43.214;27.920;2023-06-19T08:41:36;6.90;;;4.07;;
34242;SDS011;20504;43.214;27.920;2023-06-19T08:44:04;9.10;;;4.72;;
34242;SDS011;20504;43.214;27.920;2023-06-19T08:46:36;6.30;;;4.40;;
34242;SDS011;20504;43.214;27.920;2023-06-19T08:49:24;6.47;;;4.43;;
34242;SDS011;20504;43.214;27.920;2023-06-19T08:51:50;7.65;;;4.45;;
34242;SDS011;20504;43.214;27.920;2023-06-19T08:54:17;7.40;;;4.50;;
34242;SDS011;20504;43.214;27.920;2023-06-19T08:57:59;8.57;;;5.85;;
34242;SDS011;20504;43.214;27.920;2023-06-19T09:01:04;6.72;;;4.07;;
34242;SDS011;20504;43.214;27.920;2023-06-19T09:03:32;5.93;;;3.90;;
34242;SDS011;20504;43.214;27.920;2023-06-19T09:06:30;7.10;;;3.97;;
34242;SDS011;20504;43.214;27.920;2023-06-19T09:08:59;4.97;;;3.70;;
34242;SDS011;20504;43.214;27.920;2023-06-19T09:11:31;5.68;;;4.18;;
34242;SDS011;20504;43.214;27.920;2023-06-19T09:13:58;5.57;;;4.22;;
34242;SDS011;20504;43.214;27.920;2023-06-19T09:16:44;5.05;;;3.70;;
34242;SDS011;20504;43.214;27.920;2023-06-19T09:19:25;6.97;;;3.97;;
34242;SDS011;20504;43.214;27.920;2023-06-19T09:24:49;6.55;;;3.67;;
34242;SDS011;20504;43.214;27.920;2023-06-19T09:27:35;5.82;;;3.50;;
34242;SDS011;20504;43.214;27.920;2023-06-19T09:30:06;3.78;;;3.40;;
34242;SDS011;20504;43.214;27.920;2023-06-19T09:48:32;7.78;;;3.90;;
34242;SDS011;20504;43.214;27.920;2023-06-19T09:51:17;10.93;;;4.30;;
34242;SDS011;20504;43.214;27.920;2023-06-19T09:57:03;6.22;;;3.60;;
34242;SDS011;20504;43.214;27.920;2023-06-19T09:59:31;9.38;;;3.58;;
34242;SDS011;20504;43.214;27.920;2023-06-19T10:02:25;4.00;;;3.50;;
34242;SDS011;20504;43.214;27.920;2023-06-19T10:05:13;5.10;;;3.30;;
34242;SDS011;20504;43.214;27.920;2023-06-19T10:07:54;6.90;;;3.97;;
34242;SDS011;20504;43.214;27.920;2023-06-19T10:13:50;7.05;;;3.00;;
34242;SDS011;20504;43.214;27.920;2023-06-19T10:16:20;7.22;;;3.50;;
34242;SDS011;20504;43.214;27.920;2023-06-19T10:18:51;4.03;;;3.15;;
34242;SDS011;20504;43.214;27.920;2023-06-19T10:21:24;3.47;;;3.17;;
34242;SDS011;20504;43.214;27.920;2023-06-19T10:24:26;6.95;;;3.47;;
34242;SDS011;20504;43.214;27.920;2023-06-19T10:27:05;5.47;;;3.45;;
34242;SDS011;20504;43.214;27.920;2023-06-19T10:29:40;7.18;;;3.38;;
34242;SDS011;20504;43.214;27.920;2023-06-19T10:32:30;5.07;;;3.50;;
34242;SDS011;20504;43.214;27.920;2023-06-19T10:35:10;4.15;;;3.28;;
34242;SDS011;20504;43.214;27.920;2023-06-19T10:37:47;4.45;;;3.53;;
34242;SDS011;20504;43.214;27.920;2023-06-19T10:42:41;5.18;;;3.67;;
34242;SDS011;20504;43.214;27.920;2023-06-19T10:45:09;2.83;;;2.55;;
34242;SDS011;20504;43.214;27.920;2023-06-19T10:47:44;4.93;;;2.88;;
34242;SDS011;20504;43.214;27.920;2023-06-19T10:50:13;4.43;;;2.80;;
34242;SDS011;20504;43.214;27.920;2023-06-19T10:52:43;6.00;;;3.05;;
34242;SDS011;20504;43.214;27.920;2023-06-19T10:55:10;3.58;;;2.95;;
34242;SDS011;20504;43.214;27.920;2023-06-19T10:57:39;4.32;;;2.95;;
34242;SDS011;20504;43.214;27.920;2023-06-19T11:00:11;5.95;;;3.53;;
34242;SDS011;20504;43.214;27.920;2023-06-19T11:02:48;6.63;;;4.07;;
34242;SDS011;20504;43.214;27.920;2023-06-19T11:05:24;6.13;;;2.78;;
34242;SDS011;20504;43.214;27.920;2023-06-19T11:07:52;5.75;;;3.05;;
34242;SDS011;20504;43.214;27.920;2023-06-19T11:10:31;4.20;;;3.20;;
34242;SDS011;20504;43.214;27.920;2023-06-19T11:12:59;5.47;;;3.10;;
34242;SDS011;20504;43.214;27.920;2023-06-19T11:15:29;5.22;;;2.80;;
34242;SDS011;20504;43.214;27.920;2023-06-19T11:18:03;6.00;;;3.28;;
34242;SDS011;20504;43.214;27.920;2023-06-19T11:20:30;5.65;;;3.80;;
34242;SDS011;20504;43.214;27.920;2023-06-19T11:23:08;6.20;;;3.13;;
34242;SDS011;20504;43.214;27.920;2023-06-19T11:25:37;5.15;;;3.60;;
34242;SDS011;20504;43.214;27.920;2023-06-19T11:28:19;3.28;;;2.97;;
34242;SDS011;20504;43.214;27.920;2023-06-19T11:31:04;3.97;;;3.47;;
34242;SDS011;20504;43.214;27.920;2023-06-19T11:33:30;6.03;;;3.80;;
34242;SDS011;20504;43.214;27.920;2023-06-19T11:35:59;10.43;;;4.50;;
34242;SDS011;20504;43.214;27.920;2023-06-19T11:38:27;4.68;;;3.47;;
34242;SDS011;20504;43.214;27.920;2023-06-19T11:44:03;7.70;;;3.58;;
34242;SDS011;20504;43.214;27.920;2023-06-19T11:46:31;4.40;;;3.40;;
34242;SDS011;20504;43.214;27.920;2023-06-19T11:49:14;6.82;;;3.53;;
34242;SDS011;20504;43.214;27.920;2023-06-19T11:51:43;5.95;;;3.80;;
34242;SDS011;20504;43.214;27.920;2023-06-19T11:54:10;4.93;;;3.22;;
34242;SDS011;20504;43.214;27.920;2023-06-19T11:56:51;6.13;;;3.90;;
34242;SDS011;20504;43.214;27.920;2023-06-19T11:59:16;10.38;;;3.38;;
34242;SDS011;20504;43.214;27.920;2023-06-19T12:01:43;9.75;;;3.63;;
34242;SDS011;20504;43.214;27.920;2023-06-19T12:04:10;8.18;;;3.00;;
34242;SDS011;20504;43.214;27.920;2023-06-19T12:06:38;4.22;;;3.55;;
34242;SDS011;20504;43.214;27.920;2023-06-19T12:09:06;6.00;;;3.53;;
34242;SDS011;20504;43.214;27.920;2023-06-19T12:11:32;4.18;;;3.33;;
34242;SDS011;20504;43.214;27.920;2023-06-19T12:13:58;4.20;;;3.05;;
34242;SDS011;20504;43.214;27.920;2023-06-19T12:16:24;4.20;;;3.60;;
34242;SDS011;20504;43.214;27.920;2023-06-19T12:18:53;7.07;;;4.80;;
34242;SDS011;20504;43.214;27.920;2023-06-19T12:21:19;4.43;;;4.03;;
34242;SDS011;20504;43.214;27.920;2023-06-19T12:23:45;3.85;;;3.08;;
34242;SDS011;20504;43.214;27.920;2023-06-19T12:29:02;3.50;;;3.20;;
34242;SDS011;20504;43.214;27.920;2023-06-19T12:31:31;4.07;;;3.10;;
34242;SDS011;20504;43.214;27.920;2023-06-19T12:33:57;5.47;;;3.28;;
34242;SDS011;20504;43.214;27.920;2023-06-19T12:36:27;5.22;;;3.15;;
34242;SDS011;20504;43.214;27.920;2023-06-19T12:38:53;5.90;;;3.70;;
34242;SDS011;20504;43.214;27.920;2023-06-19T12:41:26;5.72;;;3.55;;
34242;SDS011;20504;43.214;27.920;2023-06-19T12:43:51;5.45;;;3.72;;
34242;SDS011;20504;43.214;27.920;2023-06-19T12:46:18;6.00;;;4.55;;
34242;SDS011;20504;43.214;27.920;2023-06-19T12:48:47;6.38;;;4.32;;
34242;SDS011;20504;43.214;27.920;2023-06-19T12:51:16;6.28;;;4.13;;
34242;SDS011;20504;43.214;27.920;2023-06-19T12:53:43;4.97;;;4.05;;
34242;SDS011;20504;43.214;27.920;2023-06-19T12:58:35;6.30;;;3.20;;
34242;SDS011;20504;43.214;27.920;2023-06-19T13:01:00;5.30;;;3.30;;
34242;SDS011;20504;43.214;27.920;2023-06-19T13:03:29;3.47;;;2.92;;
34242;SDS011;20504;43.214;27.920;2023-06-19T13:06:09;3.10;;;2.83;;
34242;SDS011;20504;43.214;27.920;2023-06-19T13:09:00;3.47;;;3.00;;
34242;SDS011;20504;43.214;27.920;2023-06-19T13:11:25;3.60;;;2.97;;
34242;SDS011;20504;43.214;27.920;2023-06-19T13:13:51;5.78;;;3.20;;
34242;SDS011;20504;43.214;27.920;2023-06-19T13:16:16;3.42;;;3.13;;
34242;SDS011;20504;43.214;27.920;2023-06-19T13:18:43;5.30;;;3.10;;
34242;SDS011;20504;43.214;27.920;2023-06-19T13:21:09;4.80;;;3.47;;
34242;SDS011;20504;43.214;27.920;2023-06-19T13:23:34;6.00;;;2.88;;
34242;SDS011;20504;43.214;27.920;2023-06-19T13:26:00;3.28;;;2.97;;
34242;SDS011;20504;43.214;27.920;2023-06-19T13:28:25;5.18;;;3.08;;
34242;SDS011;20504;43.214;27.920;2023-06-19T13:30:51;3.22;;;2.80;;
34242;SDS011;20504;43.214;27.920;2023-06-19T13:33:16;4.00;;;2.97;;
34242;SDS011;20504;43.214;27.920;2023-06-19T13:35:42;4.75;;;2.90;;
34242;SDS011;20504;43.214;27.920;2023-06-19T13:38:07;4.75;;;3.05;;
34242;SDS011;20504;43.214;27.920;2023-06-19T13:40:34;4.70;;;2.90;;
34242;SDS011;20504;43.214;27.920;2023-06-19T13:43:00;4.93;;;3.13;;
34242;SDS011;20504;43.214;27.920;2023-06-19T13:45:27;4.63;;;3.13;;
34242;SDS011;20504;43.214;27.920;2023-06-19T13:47:53;5.97;;;3.22;;
34242;SDS011;20504;43.214;27.920;2023-06-19T13:50:18;3.72;;;3.35;;
34242;SDS011;20504;43.214;27.920;2023-06-19T13:52:47;5.93;;;3.47;;
34242;SDS011;20504;43.214;27.920;2023-06-19T13:58:57;5.18;;;4.18;;
34242;SDS011;20504;43.214;27.920;2023-06-19T14:01:29;6.63;;;3.75;;
34242;SDS011;20504;43.214;27.920;2023-06-19T14:03:55;6.03;;;3.67;;
34242;SDS011;20504;43.214;27.920;2023-06-19T14:06:39;5.90;;;3.33;;
34242;SDS011;20504;43.214;27.920;2023-06-19T14:12:06;5.97;;;3.70;;
34242;SDS011;20504;43.214;27.920;2023-06-19T14:14:32;6.97;;;4.00;;
34242;SDS011;20504;43.214;27.920;2023-06-19T14:16:59;8.40;;;4.38;;
34242;SDS011;20504;43.214;27.920;2023-06-19T14:19:26;6.30;;;4.55;;
34242;SDS011;20504;43.214;27.920;2023-06-19T14:21:54;7.65;;;4.22;;
34242;SDS011;20504;43.214;27.920;2023-06-19T14:24:20;6.38;;;3.97;;
34242;SDS011;20504;43.214;27.920;2023-06-19T14:26:46;6.18;;;4.20;;
34242;SDS011;20504;43.214;27.920;2023-06-19T14:29:15;9.88;;;4.13;;
34242;SDS011;20504;43.214;27.920;2023-06-19T14:31:46;8.05;;;4.85;;
34242;SDS011;20504;43.214;27.920;2023-06-19T14:34:19;6.22;;;5.20;;
34242;SDS011;20504;43.214;27.920;2023-06-19T14:36:46;10.82;;;3.60;;
34242;SDS011;20504;43.214;27.920;2023-06-19T14:39:12;5.05;;;3.60;;
34242;SDS011;20504;43.214;27.920;2023-06-19T14:41:38;9.20;;;4.75;;
34242;SDS011;20504;43.214;27.920;2023-06-19T14:44:04;8.30;;;5.10;;
34242;SDS011;20504;43.214;27.920;2023-06-19T14:46:31;9.00;;;4.97;;
34242;SDS011;20504;43.214;27.920;2023-06-19T14:49:16;9.98;;;5.13;;
34242;SDS011;20504;43.214;27.920;2023-06-19T14:51:43;6.20;;;4.90;;
34242;SDS011;20504;43.214;27.920;2023-06-19T14:54:13;13.18;;;4.90;;
34242;SDS011;20504;43.214;27.920;2023-06-19T14:56:44;8.02;;;4.97;;
34242;SDS011;20504;43.214;27.920;2023-06-19T14:59:14;8.65;;;4.63;;
34242;SDS011;20504;43.214;27.920;2023-06-19T15:01:44;7.40;;;5.10;;
34242;SDS011;20504;43.214;27.920;2023-06-19T15:04:12;12.77;;;5.50;;
34242;SDS011;20504;43.214;27.920;2023-06-19T15:06:46;10.93;;;4.72;;
34242;SDS011;20504;43.214;27.920;2023-06-19T15:14:36;8.45;;;5.20;;
34242;SDS011;20504;43.214;27.920;2023-06-19T15:17:07;10.77;;;5.43;;
34242;SDS011;20504;43.214;27.920;2023-06-19T15:19:40;8.75;;;5.55;;
34242;SDS011;20504;43.214;27.920;2023-06-19T15:22:09;18.00;;;5.93;;
34242;SDS011;20504;43.214;27.920;2023-06-19T15:24:39;7.05;;;5.55;;
34242;SDS011;20504;43.214;27.920;2023-06-19T15:27:10;9.52;;;4.95;;
34242;SDS011;20504;43.214;27.920;2023-06-19T15:30:00;9.73;;;6.15;;
34242;SDS011;20504;43.214;27.920;2023-06-19T15:32:27;9.90;;;5.30;;
34242;SDS011;20504;43.214;27.920;2023-06-19T15:34:53;9.73;;;5.78;;
34242;SDS011;20504;43.214;27.920;2023-06-19T15:37:20;7.57;;;5.30;;
34242;SDS011;20504;43.214;27.920;2023-06-19T15:39:46;8.93;;;6.32;;
34242;SDS011;20504;43.214;27.920;2023-06-19T15:42:15;10.25;;;5.93;;
34242;SDS011;20504;43.214;27.920;2023-06-19T15:44:41;7.53;;;5.18;;
34242;SDS011;20504;43.214;27.920;2023-06-19T15:47:08;6.88;;;5.50;;
34242;SDS011;20504;43.214;27.920;2023-06-19T15:49:33;12.23;;;5.03;;
34242;SDS011;20504;43.214;27.920;2023-06-19T15:52:01;14.88;;;11.55;;
34242;SDS011;20504;43.214;27.920;2023-06-19T15:54:27;16.83;;;5.53;;
34242;SDS011;20504;43.214;27.920;2023-06-19T15:56:54;14.65;;;5.63;;
34242;SDS011;20504;43.214;27.920;2023-06-19T15:59:33;8.82;;;5.50;;
34242;SDS011;20504;43.214;27.920;2023-06-19T16:02:05;8.98;;;4.90;;
34242;SDS011;20504;43.214;27.920;2023-06-19T16:04:39;8.75;;;5.78;;
34242;SDS011;20504;43.214;27.920;2023-06-19T16:07:45;6.97;;;5.45;;
34242;SDS011;20504;43.214;27.920;2023-06-19T16:12:42;7.70;;;5.30;;
34242;SDS011;20504;43.214;27.920;2023-06-19T16:15:22;7.43;;;4.88;;
34242;SDS011;20504;43.214;27.920;2023-06-19T16:18:43;12.75;;;5.55;;
34242;SDS011;20504;43.214;27.920;2023-06-19T16:22:13;14.85;;;6.32;;
34242;SDS011;20504;43.214;27.920;2023-06-19T16:25:16;12.85;;;6.65;;
34242;SDS011;20504;43.214;27.920;2023-06-19T16:28:21;9.70;;;5.28;;
34242;SDS011;20504;43.214;27.920;2023-06-19T16:31:56;11.02;;;5.75;;
34242;SDS011;20504;43.214;27.920;2023-06-19T16:35:13;12.57;;;6.07;;
34242;SDS011;20504;43.214;27.920;2023-06-19T16:38:15;7.60;;;5.07;;
34242;SDS011;20504;43.214;27.920;2023-06-19T16:46:02;10.27;;;6.90;;
34242;SDS011;20504;43.214;27.920;2023-06-19T16:49:03;12.18;;;6.63;;
34242;SDS011;20504;43.214;27.920;2023-06-19T16:51:30;7.78;;;6.18;;
34242;SDS011;20504;43.214;27.920;2023-06-19T16:53:56;9.30;;;6.20;;
34242;SDS011;20504;43.214;27.920;2023-06-19T16:56:27;22.92;;;12.82;;
34242;SDS011;20504;43.214;27.920;2023-06-19T16:58:57;15.80;;;7.35;;
34242;SDS011;20504;43.214;27.920;2023-06-19T17:04:07;9.00;;;6.30;;
34242;SDS011;20504;43.214;27.920;2023-06-19T17:06:34;11.93;;;5.80;;
34242;SDS011;20504;43.214;27.920;2023-06-19T17:09:00;10.32;;;5.80;;
34242;SDS011;20504;43.214;27.920;2023-06-19T17:11:46;11.63;;;5.40;;
34242;SDS011;20504;43.214;27.920;2023-06-19T17:14:20;9.77;;;5.35;;
34242;SDS011;20504;43.214;27.920;2023-06-19T17:16:58;14.10;;;4.95;;
34242;SDS011;20504;43.214;27.920;2023-06-19T17:19:35;8.30;;;5.15;;
34242;SDS011;20504;43.214;27.920;2023-06-19T17:33:38;11.98;;;6.80;;
34242;SDS011;20504;43.214;27.920;2023-06-19T17:36:27;7.70;;;5.50;;
34242;SDS011;20504;43.214;27.920;2023-06-19T17:44:55;12.85;;;6.00;;
34242;SDS011;20504;43.214;27.920;2023-06-19T17:59:16;14.68;;;6.82;;
34242;SDS011;20504;43.214;27.920;2023-06-19T18:01:42;12.77;;;6.32;;
34242;SDS011;20504;43.214;27.920;2023-06-19T18:04:12;6.32;;;5.68;;
34242;SDS011;20504;43.214;27.920;2023-06-19T18:06:38;9.00;;;5.80;;
34242;SDS011;20504;43.214;27.920;2023-06-19T18:09:03;8.82;;;4.90;;
34242;SDS011;20504;43.214;27.920;2023-06-19T18:18:04;12.77;;;6.35;;
34242;SDS011;20504;43.214;27.920;2023-06-19T18:31:08;12.60;;;7.05;;
34242;SDS011;20504;43.214;27.920;2023-06-19T18:34:22;17.00;;;7.00;;
34242;SDS011;20504;43.214;27.920;2023-06-19T18:36:56;11.13;;;7.22;;
34242;SDS011;20504;43.214;27.920;2023-06-19T18:39:41;18.52;;;7.65;;
34242;SDS011;20504;43.214;27.920;2023-06-19T18:45:14;15.25;;;6.78;;
34242;SDS011;20504;43.214;27.920;2023-06-19T18:50:55;12.23;;;7.20;;
34242;SDS011;20504;43.214;27.920;2023-06-19T18:56:38;11.35;;;6.63;;
34242;SDS011;20504;43.214;27.920;2023-06-19T18:59:23;14.32;;;6.88;;
34242;SDS011;20504;43.214;27.920;2023-06-19T19:01:56;10.18;;;6.70;;
34242;SDS011;20504;43.214;27.920;2023-06-19T19:07:28;12.15;;;7.13;;
34242;SDS011;20504;43.214;27.920;2023-06-19T19:13:44;10.95;;;7.57;;
34242;SDS011;20504;43.214;27.920;2023-06-19T19:16:19;14.50;;;7.75;;
34242;SDS011;20504;43.214;27.920;2023-06-19T19:21:20;15.05;;;8.18;;
34242;SDS011;20504;43.214;27.920;2023-06-19T19:23:50;15.43;;;8.25;;
34242;SDS011;20504;43.214;27.920;2023-06-19T19:26:21;12.77;;;9.07;;
34242;SDS011;20504;43.214;27.920;2023-06-19T19:31:37;13.52;;;8.35;;
34242;SDS011;20504;43.214;27.920;2023-06-19T19:35:02;18.10;;;8.05;;
34242;SDS011;20504;43.214;27.920;2023-06-19T19:38:02;17.20;;;8.23;;
34242;SDS011;20504;43.214;27.920;2023-06-19T19:51:25;14.88;;;8.38;;
34242;SDS011;20504;43.214;27.920;2023-06-19T19:54:00;16.13;;;7.68;;
34242;SDS011;20504;43.214;27.920;2023-06-19T19:56:57;14.60;;;7.25;;
34242;SDS011;20504;43.214;27.920;2023-06-19T20:00:00;14.05;;;8.82;;
34242;SDS011;20504;43.214;27.920;2023-06-19T20:06:14;19.00;;;13.23;;
34242;SDS011;20504;43.214;27.920;2023-06-19T20:11:43;18.83;;;10.93;;
34242;SDS011;20504;43.214;27.920;2023-06-19T20:14:54;16.33;;;9.38;;
34242;SDS011;20504;43.214;27.920;2023-06-19T20:17:20;25.13;;;13.38;;
34242;SDS011;20504;43.214;27.920;2023-06-19T20:19:48;22.63;;;12.95;;
34242;SDS011;20504;43.214;27.920;2023-06-19T20:22:14;25.15;;;12.65;;
34242;SDS011;20504;43.214;27.920;2023-06-19T20:24:41;20.20;;;11.05;;
34242;SDS011;20504;43.214;27.920;2023-06-19T20:27:09;15.73;;;10.63;;
34242;SDS011;20504;43.214;27.920;2023-06-19T20:29:39;22.15;;;13.88;;
34242;SDS011;20504;43.214;27.920;2023-06-19T20:32:20;13.32;;;7.85;;
34242;SDS011;20504;43.214;27.920;2023-06-19T20:35:00;9.35;;;7.32;;
34242;SDS011;20504;43.214;27.920;2023-06-19T20:37:31;10.02;;;6.70;;
34242;SDS011;20504;43.214;27.920;2023-06-19T20:40:01;11.02;;;6.57;;
34242;SDS011;20504;43.214;27.920;2023-06-19T20:42:36;9.68;;;4.75;;
34242;SDS011;20504;43.214;27.920;2023-06-19T20:45:07;8.45;;;5.25;;
34242;SDS011;20504;43.214;27.920;2023-06-19T20:47:34;17.85;;;6.57;;
34242;SDS011;20504;43.214;27.920;2023-06-19T20:50:04;10.63;;;6.93;;
34242;SDS011;20504;43.214;27.920;2023-06-19T20:52:30;15.13;;;7.05;;
34242;SDS011;20504;43.214;27.920;2023-06-19T20:54:57;16.65;;;8.45;;
34242;SDS011;20504;43.214;27.920;2023-06-19T20:57:24;16.40;;;8.27;;
34242;SDS011;20504;43.214;27.920;2023-06-19T21:00:00;13.57;;;8.77;;
34242;SDS011;20504;43.214;27.920;2023-06-19T21:02:28;13.45;;;8.23;;
34242;SDS011;20504;43.214;27.920;2023-06-19T21:04:59;15.20;;;8.20;;
34242;SDS011;20504;43.214;27.920;2023-06-19T21:07:25;16.88;;;7.45;;
34242;SDS011;20504;43.214;27.920;2023-06-19T21:09:52;14.98;;;8.80;;
34242;SDS011;20504;43.214;27.920;2023-06-19T21:12:18;12.77;;;9.32;;
34242;SDS011;20504;43.214;27.920;2023-06-19T21:14:45;13.60;;;9.50;;
34242;SDS011;20504;43.214;27.920;2023-06-19T21:17:12;13.52;;;9.38;;
34242;SDS011;20504;43.214;27.920;2023-06-19T21:20:11;13.25;;;7.90;;
34242;SDS011;20504;43.214;27.920;2023-06-19T21:22:40;9.20;;;6.57;;
34242;SDS011;20504;43.214;27.920;2023-06-19T21:25:10;11.32;;;5.95;;
34242;SDS011;20504;43.214;27.920;2023-06-19T21:27:35;11.30;;;6.28;;